Time;durP1;ratioP1;P1;durP2;ratioP2;P2;SDS_P1;SDS_P2;PMS_P1;PMS_P2;Temp;Humidity;BMP_temperature;BMP_pressure;BME280_temperature;BME280_humidity;BME280_pressure;Samples;Min_cycle;Max_cycle;Signal;HPM_P1;HPM_P2
2021/08/30 00:01:34;;;;;;;37.27;23.20;;;16.00;99.90;;;;;;5051156;28;20232;-67
2021/08/30 00:03:59;;;;;;;42.00;25.87;;;16.10;99.90;;;;;;5053523;28;20180;-67
2021/08/30 00:06:25;;;;;;;46.20;27.60;;;16.10;99.90;;;;;;5071361;28;20277;-67
2021/08/30 00:08:50;;;;;;;46.07;26.80;;;16.10;99.90;;;;;;5067972;28;20170;-67
2021/08/30 00:11:17;;;;;;;50.07;28.97;;;16.10;99.90;;;;;;5051212;28;20175;-67
2021/08/30 00:13:47;;;;;;;44.70;25.97;;;16.10;99.90;;;;;;5051419;28;20167;-68
2021/08/30 00:16:13;;;;;;;44.33;26.90;;;16.10;99.90;;;;;;5071229;28;20631;-67
2021/08/30 00:18:39;;;;;;;46.27;25.90;;;16.20;99.90;;;;;;5071291;28;20262;-67
2021/08/30 00:21:05;;;;;;;46.90;28.90;;;16.20;99.90;;;;;;5050231;28;20189;-67
2021/08/30 00:23:31;;;;;;;44.80;26.93;;;16.10;99.90;;;;;;5051219;28;20171;-67
2021/08/30 00:25:56;;;;;;;51.73;30.73;;;16.20;99.90;;;;;;5068504;28;20217;-67
2021/08/30 00:28:22;;;;;;;52.63;33.17;;;16.20;99.90;;;;;;5071315;28;20190;-67
2021/08/30 00:30:48;;;;;;;48.13;33.47;;;16.10;99.90;;;;;;5054671;28;20264;-67
2021/08/30 00:33:13;;;;;;;45.60;28.73;;;16.20;99.90;;;;;;5062916;28;20773;-69
2021/08/30 00:35:40;;;;;;;52.93;30.43;;;16.20;99.90;;;;;;5070879;28;20233;-67
2021/08/30 00:38:06;;;;;;;50.93;32.50;;;16.20;99.90;;;;;;5060500;28;20543;-68
2021/08/30 00:40:31;;;;;;;57.57;34.67;;;16.20;99.90;;;;;;5050872;28;20170;-67
2021/08/30 00:42:59;;;;;;;59.43;33.33;;;16.20;99.90;;;;;;5059376;28;20190;-67
2021/08/30 00:45:25;;;;;;;51.80;32.23;;;16.30;99.90;;;;;;5071051;28;20206;-66
2021/08/30 00:47:53;;;;;;;59.57;34.40;;;16.30;99.90;;;;;;5063528;28;20187;-68
2021/08/30 00:50:19;;;;;;;56.57;33.50;;;16.30;99.90;;;;;;5053391;28;20163;-67
2021/08/30 00:52:46;;;;;;;58.33;34.43;;;16.20;99.90;;;;;;5060059;28;20194;-66
2021/08/30 00:55:13;;;;;;;59.83;36.27;;;16.20;99.90;;;;;;5073177;28;20194;-66
2021/08/30 00:57:38;;;;;;;55.33;33.57;;;16.30;99.90;;;;;;5056341;28;20660;-68
2021/08/30 01:00:06;;;;;;;65.17;35.90;;;16.20;99.90;;;;;;5062353;28;20189;-66
2021/08/30 01:02:32;;;;;;;56.13;34.97;;;16.20;99.90;;;;;;5074322;28;20174;-67
2021/08/30 01:04:59;;;;;;;50.37;34.07;;;16.20;99.90;;;;;;5066803;28;20205;-67
2021/08/30 01:07:54;;;;;;;65.40;33.23;;;16.20;99.90;;;;;;5054262;28;20203;-68
2021/08/30 01:10:32;;;;;;;54.13;31.77;;;16.20;99.90;;;;;;5063239;28;20254;-67
2021/08/30 01:13:15;;;;;;;53.23;30.27;;;16.20;99.90;;;;;;5072387;28;20538;-68
2021/08/30 01:15:44;;;;;;;62.47;35.83;;;16.20;99.90;;;;;;5073950;28;20190;-67
2021/08/30 01:18:20;;;;;;;58.00;34.93;;;16.20;99.90;;;;;;5071104;28;20235;-66
2021/08/30 01:21:01;;;;;;;59.70;35.27;;;16.20;99.90;;;;;;5053592;28;20181;-67
2021/08/30 01:23:28;;;;;;;63.23;35.13;;;16.20;99.90;;;;;;5058110;28;20260;-67
2021/08/30 01:25:58;;;;;;;59.23;34.70;;;16.20;99.90;;;;;;5073658;28;20275;-67
2021/08/30 01:28:29;;;;;;;60.20;33.63;;;16.20;99.90;;;;;;5064530;28;20179;-67
2021/08/30 01:30:57;;;;;;;55.30;33.17;;;16.20;99.90;;;;;;5053455;28;20537;-68
2021/08/30 01:33:25;;;;;;;61.27;34.70;;;16.20;99.90;;;;;;5061990;28;20170;-67
2021/08/30 01:35:51;;;;;;;56.87;32.67;;;16.20;99.90;;;;;;5073552;28;20201;-67
2021/08/30 01:38:17;;;;;;;56.93;34.43;;;16.20;99.90;;;;;;5054959;28;20265;-67
2021/08/30 01:40:43;;;;;;;54.73;35.00;;;16.30;99.90;;;;;;5053193;28;20546;-66
2021/08/30 01:43:10;;;;;;;60.80;34.33;;;16.30;99.90;;;;;;5070094;28;20182;-67
2021/08/30 01:45:36;;;;;;;58.00;34.57;;;16.30;99.90;;;;;;5073313;28;20293;-67
2021/08/30 01:48:04;;;;;;;55.07;32.70;;;16.30;99.90;;;;;;5057971;28;20225;-67
2021/08/30 01:50:31;;;;;;;55.90;32.47;;;16.30;99.90;;;;;;5053102;28;20202;-67
2021/08/30 01:52:59;;;;;;;51.97;31.73;;;16.20;99.90;;;;;;5066832;28;20189;-67
2021/08/30 02:00:52;;;;;;;55.53;33.87;;;16.20;99.90;;;;;;5056296;28;20703;-67
2021/08/30 02:03:29;;;;;;;56.47;33.50;;;16.20;99.90;;;;;;5073169;28;20647;-66
2021/08/30 02:06:03;;;;;;;57.53;33.20;;;16.10;99.90;;;;;;5066936;28;20234;-67
2021/08/30 02:08:32;;;;;;;55.77;31.50;;;16.20;99.90;;;;;;5053079;28;20225;-66
2021/08/30 02:11:04;;;;;;;58.13;31.80;;;16.20;99.90;;;;;;5057936;28;20591;-66
2021/08/30 02:13:30;;;;;;;56.93;32.60;;;16.20;99.90;;;;;;5072987;28;20170;-66
2021/08/30 02:15:57;;;;;;;64.33;34.30;;;16.20;99.90;;;;;;5070993;28;20281;-67
2021/08/30 02:18:28;;;;;;;61.20;35.30;;;16.20;99.90;;;;;;5072757;28;20173;-68
2021/08/30 02:21:20;;;;;;;62.07;34.23;;;16.20;99.90;;;;;;5065514;28;20628;-67
2021/08/30 02:24:03;;;;;;;63.67;33.97;;;16.20;99.90;;;;;;5052746;28;20175;-67
2021/08/30 02:26:36;;;;;;;63.77;33.90;;;16.20;99.90;;;;;;5063437;28;20569;-66
2021/08/30 02:29:03;;;;;;;61.03;34.97;;;16.20;99.90;;;;;;5067337;28;20188;-66
2021/08/30 02:31:31;;;;;;;63.00;33.87;;;16.20;99.90;;;;;;5050491;28;20167;-67
2021/08/30 02:33:59;;;;;;;61.33;33.40;;;16.20;99.90;;;;;;5055252;28;20265;-67
2021/08/30 02:36:27;;;;;;;68.57;35.50;;;16.20;99.90;;;;;;5072292;28;20170;-67
2021/08/30 02:38:55;;;;;;;67.13;35.70;;;16.20;99.90;;;;;;5069405;28;20186;-67
2021/08/30 02:41:23;;;;;;;69.70;37.37;;;16.20;99.90;;;;;;5052171;28;20179;-66
2021/08/30 02:43:50;;;;;;;67.63;35.03;;;16.20;99.90;;;;;;5052424;28;20274;-67
2021/08/30 02:46:16;;;;;;;61.13;33.50;;;16.20;99.90;;;;;;5071972;28;20313;-67
2021/08/30 02:48:42;;;;;;;64.80;32.27;;;16.20;99.90;;;;;;5071947;28;20533;-67
2021/08/30 02:51:11;;;;;;;65.10;36.67;;;16.20;99.90;;;;;;5051180;28;20163;-67
2021/08/30 02:53:38;;;;;;;63.93;35.13;;;16.20;99.90;;;;;;5052471;28;20171;-67
2021/08/30 02:56:04;;;;;;;61.23;35.00;;;16.20;99.90;;;;;;5052261;28;20570;-68
2021/08/30 02:58:30;;;;;;;71.37;36.40;;;16.10;99.90;;;;;;5066892;28;20707;-68
2021/08/30 03:00:56;;;;;;;70.70;37.20;;;16.10;99.90;;;;;;5071718;28;20258;-67
2021/08/30 03:03:22;;;;;;;70.70;38.07;;;16.10;99.90;;;;;;5058226;28;20305;-67
2021/08/30 03:05:48;;;;;;;79.70;37.33;;;16.10;99.90;;;;;;5051916;28;20628;-67
2021/08/30 03:08:15;;;;;;;71.57;37.67;;;16.10;99.90;;;;;;5063542;28;20178;-66
2021/08/30 03:10:43;;;;;;;76.23;38.30;;;16.10;99.90;;;;;;5071735;28;20666;-67
2021/08/30 03:13:10;;;;;;;73.30;38.23;;;16.10;99.90;;;;;;5060670;28;20179;-66
2021/08/30 03:15:35;;;;;;;65.03;36.03;;;16.10;99.90;;;;;;5051697;28;20209;-67
2021/08/30 03:18:07;;;;;;;62.83;36.63;;;16.10;99.90;;;;;;5059163;28;20268;-67
2021/08/30 03:20:33;;;;;;;62.97;36.07;;;16.10;99.90;;;;;;5071553;28;20177;-67
2021/08/30 03:23:00;;;;;;;71.63;38.07;;;16.10;99.90;;;;;;5063413;28;20549;-68
2021/08/30 03:25:31;;;;;;;66.30;36.27;;;16.10;99.90;;;;;;5055769;28;20209;-67
2021/08/30 03:27:58;;;;;;;62.27;35.43;;;16.00;99.90;;;;;;5071722;28;20243;-68
2021/08/30 03:30:24;;;;;;;61.40;34.70;;;16.00;99.90;;;;;;5067776;28;20178;-68
2021/08/30 03:32:50;;;;;;;63.23;35.80;;;15.90;99.90;;;;;;5051544;28;20166;-68
2021/08/30 03:35:16;;;;;;;62.20;35.87;;;16.00;99.90;;;;;;5052866;28;20217;-67
2021/08/30 03:37:43;;;;;;;56.37;34.67;;;15.90;99.90;;;;;;5071527;28;20178;-67
2021/08/30 03:40:11;;;;;;;62.47;36.00;;;15.90;99.90;;;;;;5070670;28;20712;-67
2021/08/30 03:42:38;;;;;;;65.07;35.27;;;15.90;99.90;;;;;;5051330;28;20175;-67
2021/08/30 03:45:05;;;;;;;59.70;33.67;;;15.90;99.90;;;;;;5051429;28;20248;-67
2021/08/30 03:47:32;;;;;;;60.50;34.83;;;15.80;99.90;;;;;;5052182;28;20193;-67
2021/08/30 03:49:59;;;;;;;58.60;33.63;;;15.90;99.90;;;;;;5048835;28;20178;-68
2021/08/30 03:52:26;;;;;;;68.20;35.57;;;15.80;99.90;;;;;;5065302;28;20201;-66
2021/08/30 03:54:51;;;;;;;63.27;35.37;;;15.80;99.90;;;;;;5070094;28;20206;-66
2021/08/30 03:57:17;;;;;;;59.47;35.40;;;15.90;99.90;;;;;;5054973;28;20709;-67
2021/08/30 03:59:48;;;;;;;60.07;35.97;;;15.80;99.90;;;;;;5049748;28;20174;-66
2021/08/30 04:02:15;;;;;;;61.37;35.93;;;15.80;99.90;;;;;;5066404;28;20174;-67
2021/08/30 04:04:43;;;;;;;52.03;33.90;;;15.90;99.90;;;;;;5071242;28;20662;-66
2021/08/30 04:07:10;;;;;;;56.07;35.30;;;15.90;99.90;;;;;;5057009;28;20601;-67
2021/08/30 04:09:37;;;;;;;63.37;35.63;;;15.90;99.90;;;;;;5051200;28;20171;-67
2021/08/30 04:12:04;;;;;;;62.90;36.83;;;15.80;99.90;;;;;;5063569;28;20174;-66
2021/08/30 04:14:30;;;;;;;60.57;34.80;;;15.90;99.90;;;;;;5071229;28;20190;-67
2021/08/30 04:16:55;;;;;;;61.77;35.97;;;15.90;99.90;;;;;;5069557;28;20186;-66
2021/08/30 04:19:21;;;;;;;59.07;35.07;;;15.80;99.90;;;;;;5068597;28;20537;-66
2021/08/30 04:21:47;;;;;;;57.03;33.77;;;15.90;99.90;;;;;;5051030;28;20270;-66
2021/08/30 04:24:13;;;;;;;58.97;36.23;;;15.90;99.90;;;;;;5052436;28;20179;-67
2021/08/30 04:26:38;;;;;;;52.40;35.07;;;15.90;99.90;;;;;;5074882;28;20198;-66
2021/08/30 04:29:04;;;;;;;55.63;36.27;;;15.90;99.90;;;;;;5075029;28;20660;-67
2021/08/30 04:31:31;;;;;;;54.53;34.07;;;15.90;99.90;;;;;;5055506;28;20201;-67
2021/08/30 04:33:57;;;;;;;52.60;32.80;;;15.90;99.90;;;;;;5054643;28;20229;-67
2021/08/30 04:36:23;;;;;;;60.33;34.97;;;15.80;99.90;;;;;;5083356;22;20226;-65
2021/08/30 04:38:49;;;;;;;60.63;34.93;;;15.90;99.90;;;;;;5074603;28;20591;-66
2021/08/30 04:41:15;;;;;;;52.10;34.87;;;15.90;99.90;;;;;;5073686;28;20189;-66
2021/08/30 04:43:42;;;;;;;56.63;32.90;;;15.90;99.90;;;;;;5074569;28;20174;-66
2021/08/30 04:46:08;;;;;;;57.23;35.43;;;15.90;99.90;;;;;;5059914;28;20301;-66
2021/08/30 04:48:34;;;;;;;57.43;34.27;;;16.00;99.90;;;;;;5064490;28;20193;-66
2021/08/30 04:50:59;;;;;;;47.27;33.20;;;16.00;99.90;;;;;;5072038;28;20647;-66
2021/08/30 04:53:25;;;;;;;53.47;32.97;;;15.90;99.90;;;;;;5069702;28;20181;-66
2021/08/30 04:55:51;;;;;;;52.07;34.03;;;16.00;99.90;;;;;;5074330;28;20602;-66
2021/08/30 04:58:16;;;;;;;50.93;32.67;;;15.90;99.90;;;;;;5073686;28;20175;-66
2021/08/30 05:00:42;;;;;;;57.77;39.77;;;15.90;99.90;;;;;;5073955;28;20175;-66
2021/08/30 05:03:07;;;;;;;57.00;43.93;;;15.90;99.90;;;;;;5064901;28;20179;-66
2021/08/30 05:05:33;;;;;;;58.83;44.40;;;15.90;99.90;;;;;;5054081;28;20489;-66
2021/08/30 05:07:58;;;;;;;56.43;45.17;;;15.90;99.90;;;;;;5058026;28;20566;-66
2021/08/30 05:10:24;;;;;;;55.47;44.57;;;15.90;99.90;;;;;;5053465;28;20173;-66
2021/08/30 05:12:50;;;;;;;61.40;44.23;;;16.00;99.90;;;;;;5059466;28;20304;-66
2021/08/30 05:15:15;;;;;;;60.83;44.53;;;15.90;99.90;;;;;;5073916;28;20243;-65
2021/08/30 05:17:41;;;;;;;52.23;43.07;;;16.00;99.90;;;;;;5056360;28;20694;-66
2021/08/30 05:20:07;;;;;;;58.97;43.67;;;16.00;99.90;;;;;;5053502;28;20194;-66
2021/08/30 05:22:33;;;;;;;50.53;40.30;;;16.00;99.90;;;;;;5069157;28;20647;-66
2021/08/30 05:24:58;;;;;;;52.03;37.80;;;16.00;99.90;;;;;;5061783;28;20284;-66
2021/08/30 05:27:24;;;;;;;61.00;38.63;;;16.10;99.90;;;;;;5066098;28;20178;-66
2021/08/30 05:29:49;;;;;;;50.83;32.30;;;16.10;99.90;;;;;;5073336;28;20510;-66
2021/08/30 05:32:15;;;;;;;54.33;32.67;;;16.10;99.90;;;;;;5061218;28;20527;-66
2021/08/30 05:34:41;;;;;;;54.47;33.17;;;16.10;99.90;;;;;;5052808;28;20632;-66
2021/08/30 05:37:07;;;;;;;51.27;32.30;;;16.10;99.90;;;;;;5063707;28;20184;-66
2021/08/30 05:39:33;;;;;;;47.33;32.13;;;16.10;99.90;;;;;;5073179;28;20205;-65
2021/08/30 05:41:59;;;;;;;51.27;33.53;;;16.10;99.90;;;;;;5068475;28;20206;-66
2021/08/30 05:44:24;;;;;;;51.77;32.23;;;16.10;99.90;;;;;;5060987;28;20687;-65
2021/08/30 05:46:51;;;;;;;46.80;31.93;;;16.10;99.90;;;;;;5060251;28;20206;-66
2021/08/30 05:49:17;;;;;;;50.77;33.03;;;16.10;99.90;;;;;;5071368;28;20578;-66
2021/08/30 05:51:43;;;;;;;44.47;33.57;;;16.10;99.90;;;;;;5071038;28;20162;-65
2021/08/30 05:54:08;;;;;;;47.10;32.57;;;16.10;99.90;;;;;;5053003;28;20213;-66
2021/08/30 05:56:34;;;;;;;50.43;33.23;;;16.10;99.90;;;;;;5056957;28;20197;-66
2021/08/30 05:58:59;;;;;;;49.27;33.53;;;16.20;99.90;;;;;;5053085;28;20289;-66
2021/08/30 06:01:25;;;;;;;48.87;33.87;;;16.20;99.90;;;;;;5055320;28;20183;-66
2021/08/30 06:03:51;;;;;;;48.57;31.53;;;16.30;99.90;;;;;;5073020;28;20166;-66
2021/08/30 06:06:16;;;;;;;48.13;32.20;;;16.30;99.90;;;;;;5069006;28;20202;-66
2021/08/30 06:08:42;;;;;;;48.20;32.73;;;16.30;99.90;;;;;;5052455;28;20194;-66
2021/08/30 06:11:07;;;;;;;47.03;30.67;;;16.40;99.90;;;;;;5052603;28;20175;-65
2021/08/30 06:13:33;;;;;;;45.13;31.00;;;16.40;99.90;;;;;;5052730;28;20324;-66
2021/08/30 06:15:59;;;;;;;42.13;29.37;;;16.40;99.90;;;;;;5052530;28;20186;-66
2021/08/30 06:18:26;;;;;;;41.97;30.17;;;16.40;99.90;;;;;;5050275;28;20206;-66
2021/08/30 06:20:52;;;;;;;42.83;31.00;;;16.40;99.90;;;;;;5051741;28;20266;-66
2021/08/30 06:23:19;;;;;;;44.57;30.30;;;16.50;99.90;;;;;;5070196;28;20177;-66
2021/08/30 06:25:44;;;;;;;36.87;28.57;;;16.50;99.90;;;;;;5072265;28;20201;-66
2021/08/30 06:28:10;;;;;;;43.90;30.43;;;16.50;99.90;;;;;;5055983;28;20189;-66
2021/08/30 06:30:36;;;;;;;41.83;27.43;;;16.60;99.90;;;;;;5062266;28;20213;-66
2021/08/30 06:33:02;;;;;;;36.00;28.20;;;16.60;99.90;;;;;;5072402;28;20170;-66
2021/08/30 06:35:28;;;;;;;37.57;28.00;;;16.60;99.90;;;;;;5070457;28;20296;-66
2021/08/30 06:37:53;;;;;;;40.27;26.60;;;16.60;99.90;;;;;;5072294;28;20208;-66
2021/08/30 06:40:23;;;;;;;36.80;27.10;;;16.60;99.90;;;;;;5064732;28;20190;-65
2021/08/30 06:42:48;;;;;;;37.47;27.57;;;16.70;99.90;;;;;;5052332;28;20182;-66
2021/08/30 06:45:14;;;;;;;37.67;27.07;;;16.80;99.90;;;;;;5053138;28;20275;-65
2021/08/30 06:47:42;;;;;;;39.30;27.67;;;16.90;99.90;;;;;;5051240;28;20202;-65
2021/08/30 06:50:08;;;;;;;33.50;26.90;;;17.00;99.90;;;;;;5054877;28;20170;-66
2021/08/30 06:52:34;;;;;;;34.70;25.90;;;17.20;99.90;;;;;;5072029;28;20174;-65
2021/08/30 06:54:59;;;;;;;34.77;26.63;;;17.30;99.90;;;;;;5070273;28;20201;-66
2021/08/30 06:57:25;;;;;;;35.47;24.63;;;17.30;99.90;;;;;;5054462;28;20175;-66
2021/08/30 06:59:50;;;;;;;28.83;23.63;;;17.20;99.90;;;;;;5052187;28;20253;-66
2021/08/30 07:02:16;;;;;;;32.33;24.37;;;17.20;99.90;;;;;;5071781;28;20170;-66
2021/08/30 07:04:42;;;;;;;31.87;26.10;;;17.20;99.90;;;;;;5070438;28;20360;-66
2021/08/30 07:07:07;;;;;;;34.63;26.20;;;17.10;99.90;;;;;;5070748;28;20209;-66
2021/08/30 07:09:33;;;;;;;34.07;27.13;;;17.10;99.90;;;;;;5071458;28;20213;-66
2021/08/30 07:11:58;;;;;;;39.70;28.80;;;17.10;99.90;;;;;;5054134;28;20568;-66
2021/08/30 07:14:24;;;;;;;36.97;29.27;;;17.20;99.90;;;;;;5051565;28;20225;-65
2021/08/30 07:16:49;;;;;;;34.63;27.60;;;17.20;99.90;;;;;;5066181;28;20204;-65
2021/08/30 07:19:15;;;;;;;37.50;27.77;;;17.30;99.90;;;;;;5070501;28;20213;-66
2021/08/30 07:21:41;;;;;;;38.30;28.63;;;17.40;99.90;;;;;;5057447;28;20637;-66
2021/08/30 07:24:06;;;;;;;39.23;28.50;;;17.40;99.90;;;;;;5056163;28;20196;-66
2021/08/30 07:26:32;;;;;;;43.50;29.57;;;17.50;99.90;;;;;;5071353;28;20206;-65
2021/08/30 07:28:58;;;;;;;41.47;29.07;;;17.50;99.90;;;;;;5068593;28;20236;-66
2021/08/30 07:31:23;;;;;;;37.43;28.57;;;17.50;99.90;;;;;;5050391;28;20197;-66
2021/08/30 07:33:49;;;;;;;39.97;28.73;;;17.50;99.90;;;;;;5052264;28;20174;-66
2021/08/30 07:36:15;;;;;;;42.40;29.70;;;17.60;99.90;;;;;;5071292;28;20201;-66
2021/08/30 07:38:41;;;;;;;45.00;31.63;;;17.60;99.90;;;;;;5071365;28;20173;-65
2021/08/30 07:41:07;;;;;;;38.73;29.03;;;17.50;99.90;;;;;;5051638;28;20262;-65
2021/08/30 07:43:33;;;;;;;37.27;29.30;;;17.40;99.90;;;;;;5051247;28;20266;-65
2021/08/30 07:46:00;;;;;;;39.60;30.77;;;17.30;99.90;;;;;;5068390;28;20659;-66
2021/08/30 07:48:26;;;;;;;45.67;30.97;;;17.40;99.90;;;;;;5071106;28;20181;-65
2021/08/30 07:50:52;;;;;;;39.73;29.87;;;17.40;99.90;;;;;;5054952;28;20270;-66
2021/08/30 07:53:17;;;;;;;42.07;29.03;;;17.40;99.90;;;;;;5063645;28;20711;-66
2021/08/30 07:55:43;;;;;;;39.57;30.40;;;17.50;99.90;;;;;;5071088;28;20196;-66
2021/08/30 07:58:09;;;;;;;40.53;27.87;;;17.60;99.90;;;;;;5061482;28;20174;-66
2021/08/30 08:00:35;;;;;;;42.17;29.77;;;17.60;99.90;;;;;;5051525;28;20701;-66
2021/08/30 08:03:00;;;;;;;39.60;29.13;;;17.60;99.90;;;;;;5062540;28;20182;-66
2021/08/30 08:05:26;;;;;;;46.60;30.97;;;17.70;99.90;;;;;;5075083;28;20276;-66
2021/08/30 08:07:51;;;;;;;44.57;32.03;;;17.60;99.90;;;;;;5067708;28;20540;-66
2021/08/30 08:10:17;;;;;;;41.53;31.13;;;17.60;99.90;;;;;;5054816;28;20193;-66
2021/08/30 08:12:43;;;;;;;43.60;31.93;;;17.50;99.90;;;;;;5060164;28;20582;-66
2021/08/30 08:15:09;;;;;;;40.93;31.40;;;17.60;99.90;;;;;;5075087;28;20194;-66
2021/08/30 08:17:35;;;;;;;44.77;32.20;;;17.50;99.90;;;;;;5073492;28;20171;-66
2021/08/30 08:20:02;;;;;;;40.73;29.97;;;17.60;99.90;;;;;;5073468;28;20876;-66
2021/08/30 08:22:30;;;;;;;44.00;28.83;;;17.50;99.90;;;;;;5072987;28;20197;-66
2021/08/30 08:24:58;;;;;;;38.33;29.73;;;17.60;99.90;;;;;;5054526;28;20544;-66
2021/08/30 08:27:24;;;;;;;38.33;29.97;;;17.70;99.90;;;;;;5054729;28;20209;-66
2021/08/30 08:29:50;;;;;;;40.47;28.97;;;17.80;99.90;;;;;;5074385;28;20204;-66
2021/08/30 08:32:15;;;;;;;35.00;27.37;;;18.20;99.90;;;;;;5074677;28;20189;-65
2021/08/30 08:34:41;;;;;;;33.17;26.70;;;18.50;99.90;;;;;;5055629;28;20199;-66
2021/08/30 08:37:08;;;;;;;30.70;25.67;;;18.80;99.90;;;;;;5054687;28;20544;-66
2021/08/30 08:39:34;;;;;;;33.13;25.13;;;19.20;99.90;;;;;;5055541;28;20191;-66
2021/08/30 08:42:00;;;;;;;31.63;24.80;;;19.30;99.90;;;;;;5054416;28;20179;-66
2021/08/30 08:44:25;;;;;;;27.20;24.33;;;19.40;99.90;;;;;;5069309;28;20552;-66
2021/08/30 08:46:51;;;;;;;30.67;24.50;;;19.50;99.90;;;;;;5066620;28;20667;-66
2021/08/30 08:49:22;;;;;;;31.40;25.97;;;19.50;99.90;;;;;;5054350;28;20171;-66
2021/08/30 08:51:48;;;;;;;35.00;25.83;;;19.40;99.90;;;;;;5074221;28;20181;-66
2021/08/30 08:54:15;;;;;;;28.43;23.50;;;19.30;99.90;;;;;;5074250;28;20241;-66
2021/08/30 08:56:41;;;;;;;28.80;24.33;;;19.20;99.90;;;;;;5062707;28;20260;-66
2021/08/30 08:59:06;;;;;;;32.60;25.10;;;19.00;99.90;;;;;;5074195;28;20272;-66
2021/08/30 09:01:36;;;;;;;33.30;25.03;;;19.00;99.90;;;;;;5056000;28;20240;-65
2021/08/30 09:04:03;;;;;;;32.40;25.57;;;18.80;99.90;;;;;;5073075;28;20296;-66
2021/08/30 09:06:39;;;;;;;30.53;24.70;;;18.80;99.90;;;;;;5057077;28;20210;-66
2021/08/30 09:09:14;;;;;;;28.63;24.10;;;18.70;99.90;;;;;;5053868;28;20272;-66
2021/08/30 09:11:44;;;;;;;30.57;26.50;;;18.60;99.90;;;;;;5070783;28;20170;-66
2021/08/30 09:14:20;;;;;;;32.23;25.83;;;18.50;99.90;;;;;;5072630;28;20170;-66
2021/08/30 09:16:47;;;;;;;36.07;25.73;;;18.30;99.90;;;;;;5073786;28;20196;-66
2021/08/30 09:19:16;;;;;;;35.03;27.37;;;18.10;99.90;;;;;;5057071;28;20179;-66
2021/08/30 09:21:47;;;;;;;34.67;27.33;;;18.00;99.90;;;;;;5053633;28;20565;-66
2021/08/30 09:24:21;;;;;;;37.23;29.87;;;17.80;99.90;;;;;;5069544;28;20186;-66
2021/08/30 09:26:54;;;;;;;38.67;29.67;;;17.70;99.90;;;;;;5073666;28;20318;-65
2021/08/30 09:29:28;;;;;;;39.33;30.70;;;17.60;99.90;;;;;;5057098;28;20201;-66
2021/08/30 09:32:03;;;;;;;42.23;30.27;;;17.50;99.90;;;;;;5053520;28;20659;-65
2021/08/30 09:34:33;;;;;;;42.53;30.67;;;17.50;99.90;;;;;;5069829;28;20178;-66
2021/08/30 09:36:58;;;;;;;41.80;31.57;;;17.40;99.90;;;;;;5073585;28;20186;-66
2021/08/30 09:39:25;;;;;;;40.13;30.70;;;17.40;99.90;;;;;;5057702;28;20185;-66
2021/08/30 09:41:52;;;;;;;42.90;31.37;;;17.40;99.90;;;;;;5066034;28;20182;-66
2021/08/30 09:44:26;;;;;;;40.37;29.50;;;17.50;99.90;;;;;;5073275;28;20174;-66
2021/08/30 09:46:52;;;;;;;46.57;29.47;;;17.60;99.90;;;;;;5060526;28;20203;-66
2021/08/30 09:49:22;;;;;;;35.97;28.53;;;17.80;99.90;;;;;;5052910;28;20170;-66
2021/08/30 09:51:50;;;;;;;35.93;27.33;;;18.00;99.90;;;;;;5064083;28;20182;-66
2021/08/30 09:54:18;;;;;;;34.37;25.63;;;18.20;99.90;;;;;;5071808;28;20261;-66
2021/08/30 09:56:45;;;;;;;32.53;25.40;;;18.40;99.90;;;;;;5062835;28;20179;-67
2021/08/30 09:59:12;;;;;;;34.03;24.10;;;18.50;99.90;;;;;;5053294;28;20166;-66
2021/08/30 10:01:41;;;;;;;28.93;24.37;;;18.50;99.90;;;;;;5060952;28;20173;-66
2021/08/30 10:04:09;;;;;;;29.07;23.80;;;18.50;99.90;;;;;;5073031;28;20174;-66
2021/08/30 10:06:37;;;;;;;26.53;22.43;;;18.50;99.90;;;;;;5065011;28;20206;-66
2021/08/30 10:09:10;;;;;;;26.47;21.97;;;18.40;99.90;;;;;;5056489;28;20170;-66
2021/08/30 10:11:37;;;;;;;30.13;22.70;;;18.40;99.90;;;;;;5072556;28;20178;-66
2021/08/30 10:14:07;;;;;;;31.17;23.40;;;18.30;99.90;;;;;;5069191;28;20236;-66
2021/08/30 10:16:34;;;;;;;29.60;23.20;;;18.40;99.90;;;;;;5052590;28;20198;-66
2021/08/30 10:19:00;;;;;;;29.17;22.90;;;18.70;99.90;;;;;;5054828;28;20197;-66
2021/08/30 10:21:27;;;;;;;28.03;22.77;;;18.80;99.90;;;;;;5072403;28;20635;-66
2021/08/30 10:23:53;;;;;;;26.87;23.30;;;18.90;99.90;;;;;;5071593;28;20185;-66
2021/08/30 10:26:19;;;;;;;24.70;22.20;;;19.20;99.90;;;;;;5051269;28;20602;-67
2021/08/30 10:28:46;;;;;;;23.23;20.17;;;19.30;99.90;;;;;;5052328;28;20202;-66
2021/08/30 10:31:21;;;;;;;22.60;20.27;;;19.50;99.90;;;;;;5071290;28;20178;-66
2021/08/30 10:33:52;;;;;;;28.27;20.23;;;19.60;99.90;;;;;;5072353;28;20173;-66
2021/08/30 10:36:20;;;;;;;22.23;18.57;;;19.70;99.90;;;;;;5053374;28;20242;-66
2021/08/30 10:39:04;;;;;;;24.77;19.40;;;19.80;99.90;;;;;;5068097;28;20665;-66
2021/08/30 10:41:39;;;;;;;22.77;19.80;;;19.90;99.90;;;;;;5072167;28;20181;-66
2021/08/30 10:44:33;;;;;;;24.13;21.00;;;20.00;99.90;;;;;;5053750;28;20189;-66
2021/08/30 10:47:01;;;;;;;23.03;17.90;;;20.10;99.90;;;;;;5047388;28;20236;-66
2021/08/30 10:49:30;;;;;;;23.43;20.90;;;20.20;99.90;;;;;;5071838;28;20170;-66
2021/08/30 10:52:07;;;;;;;23.47;19.53;;;20.20;99.90;;;;;;5071969;28;20171;-66
2021/08/30 10:54:32;;;;;;;22.23;19.93;;;20.20;99.90;;;;;;5031973;28;20167;-66
2021/08/30 10:57:01;;;;;;;22.43;17.93;;;20.10;99.90;;;;;;5032028;28;20182;-66
2021/08/30 10:59:29;;;;;;;21.13;18.90;;;20.10;99.90;;;;;;5070504;28;20185;-66
2021/08/30 11:02:03;;;;;;;20.40;18.33;;;20.10;99.90;;;;;;5071814;28;20197;-66
2021/08/30 11:04:34;;;;;;;21.87;19.53;;;20.20;99.90;;;;;;5052924;28;20459;-66
2021/08/30 11:07:01;;;;;;;20.37;17.83;;;20.40;99.90;;;;;;5066204;28;20549;-66
2021/08/30 11:09:27;;;;;;;19.03;17.13;;;20.50;99.90;;;;;;5071531;28;20166;-66
2021/08/30 11:11:53;;;;;;;18.07;16.27;;;20.80;99.90;;;;;;5057244;28;20189;-66
2021/08/30 11:14:20;;;;;;;18.83;16.93;;;21.00;99.90;;;;;;5051795;28;20190;-66
2021/08/30 11:16:54;;;;;;;17.93;16.03;;;21.10;99.90;;;;;;5064432;28;20597;-66
2021/08/30 11:19:20;;;;;;;19.67;16.17;;;21.30;99.90;;;;;;5071504;28;20170;-66
2021/08/30 11:21:50;;;;;;;17.17;15.37;;;21.40;99.90;;;;;;5059018;28;20236;-66
2021/08/30 11:24:28;;;;;;;17.37;15.57;;;21.40;99.90;;;;;;5051782;28;20615;-66
2021/08/30 11:26:56;;;;;;;19.43;16.23;;;21.30;99.90;;;;;;5064243;28;20202;-66
2021/08/30 11:29:22;;;;;;;23.57;17.73;;;21.10;99.90;;;;;;5071381;28;20253;-66
2021/08/30 11:31:49;;;;;;;22.27;18.23;;;20.90;99.90;;;;;;5059751;28;20254;-66
2021/08/30 11:34:35;;;;;;;20.60;18.47;;;21.00;99.90;;;;;;5058766;28;20178;-66
2021/08/30 11:37:03;;;;;;;20.50;18.37;;;20.70;99.90;;;;;;5071671;28;20192;-66
2021/08/30 11:39:31;;;;;;;20.13;17.73;;;20.70;99.90;;;;;;5062084;28;20186;-66
2021/08/30 11:41:59;;;;;;;21.17;18.63;;;20.70;99.90;;;;;;5051328;28;20179;-66
2021/08/30 11:44:28;;;;;;;21.97;19.87;;;20.60;99.90;;;;;;5059190;28;20196;-66
2021/08/30 11:46:56;;;;;;;18.97;17.17;;;20.80;99.90;;;;;;5071243;28;20197;-66
2021/08/30 11:49:29;;;;;;;21.87;16.40;;;20.90;99.90;;;;;;5064035;28;20175;-66
2021/08/30 11:51:59;;;;;;;18.00;15.93;;;21.10;99.90;;;;;;5051304;28;20212;-66
2021/08/30 11:54:33;;;;;;;19.43;16.73;;;21.30;99.90;;;;;;5057973;28;20201;-65
2021/08/30 11:57:03;;;;;;;17.40;15.40;;;21.40;99.90;;;;;;5071324;28;20170;-66
2021/08/30 11:59:39;;;;;;;16.53;14.83;;;21.70;99.90;;;;;;5064434;28;20189;-66
2021/08/30 12:02:10;;;;;;;15.83;14.17;;;22.00;99.90;;;;;;5055511;28;20177;-66
2021/08/30 12:04:38;;;;;;;16.20;14.50;;;22.40;99.90;;;;;;5071327;28;20690;-66
2021/08/30 12:07:06;;;;;;;15.97;14.47;;;22.60;99.90;;;;;;5067378;28;20555;-66
2021/08/30 12:09:46;;;;;;;17.10;15.07;;;22.80;99.90;;;;;;5049712;28;20541;-66
2021/08/30 12:12:16;;;;;;;16.97;15.27;;;22.80;99.90;;;;;;5055543;28;20196;-66
2021/08/30 12:15:04;;;;;;;15.63;14.10;;;23.00;99.90;;;;;;5071054;28;20196;-66
2021/08/30 12:17:40;;;;;;;15.17;13.73;;;23.10;99.90;;;;;;5064969;28;20225;-66
2021/08/30 12:20:10;;;;;;;16.13;14.43;;;22.90;99.90;;;;;;5049654;28;20525;-66
2021/08/30 12:22:38;;;;;;;15.17;13.60;;;22.90;99.90;;;;;;5057006;28;20663;-66
2021/08/30 12:25:07;;;;;;;14.80;13.40;;;22.80;99.90;;;;;;5070988;28;20233;-66
2021/08/30 12:27:38;;;;;;;14.27;12.73;;;22.90;99.90;;;;;;5065531;28;20214;-66
2021/08/30 12:30:23;;;;;;;14.40;13.07;;;22.90;99.90;;;;;;5067936;28;20205;-66
2021/08/30 12:33:16;;;;;;;14.52;13.13;;;23.30;99.90;;;;;;5063568;28;20591;-66
2021/08/30 12:35:45;;;;;;;15.63;14.00;;;23.40;99.90;;;;;;5050682;28;20245;-66
2021/08/30 12:38:14;;;;;;;14.67;13.00;;;23.40;99.90;;;;;;5060515;28;20192;-66